Decoded Metar for LFOV (LAVAL in FRANCE) (IATA:LVA) | Meteo·Mobile Aviation Weather
aviador You're here:

LFOV Decoded Metar

LAVAL in FRANCE
Report Time2019-08-22 13:00:00
UTC Time2019-08-22 13:11:03
Flight Rules vfr VFR
Wind290° at 04 kt
W.Decomp.*RWY 32: 3.5 kt HW 1.9 kt LCW
Visibility9999 m
Phenomena:N/A
Clouds:N/A
Expected CloudBase > 5,600 ft AGL from Temp-Dew spread
CeilingNone
Temp25°C (ISA +11)
Dew Point11°C (42% RH)
AAT23.9°C
QNH1025 hPa
Density Alt1,325 ft
Elevation318 ft
Report Wrong Elevation
Raw Report
METAR LFOV 221300Z AUTO 29004KT 240V340 CAVOK 25/11 Q1025=

Extra information for LFOV:More info

Metar Taf Metar & Taf Last 4 Metars F.Rules Stats Wind Profile Meteogram Temp Stats Airport Information Weather charts Add Link Nearby VenuesMetar ALERT Operation Metar Decoded Social comments